Time;durP1;ratioP1;P1;durP2;ratioP2;P2;SDS_P1;SDS_P2;PMS_P1;PMS_P2;Temp;Humidity;BMP_temperature;BMP_pressure;BME280_temperature;BME280_humidity;BME280_pressure;Samples;Min_cycle;Max_cycle;Signal;HPM_P1;HPM_P2
2022/08/12 00:45:05;;;;;;;21.10;18.87;;;;;;;23.99;100.00;100622.89;1792398;80;21125;-88
2022/08/12 00:47:38;;;;;;;21.57;19.35;;;;;;;23.91;100.00;100617.25;1791991;80;21469;-89
2022/08/12 00:50:16;;;;;;;20.85;18.65;;;;;;;23.86;100.00;100613.03;1792017;80;21053;-89
2022/08/12 00:52:41;;;;;;;22.32;19.50;;;;;;;23.79;100.00;100618.86;1787315;80;20979;-89
2022/08/12 00:55:08;;;;;;;21.52;18.70;;;;;;;23.72;100.00;100618.84;1789435;80;21026;-89
2022/08/12 00:57:37;;;;;;;19.98;18.07;;;;;;;23.69;100.00;100622.41;1804247;79;21140;-89
2022/08/12 01:00:13;;;;;;;22.07;17.87;;;;;;;23.66;100.00;100624.17;1808658;79;21097;-89
2022/08/12 01:02:56;;;;;;;20.02;18.10;;;;;;;23.65;100.00;100623.85;1809004;78;21018;-89
2022/08/12 01:13:49;;;;;;;21.65;19.65;;;;;;;23.59;100.00;100632.11;1809019;79;20947;-89
2022/08/12 01:16:23;;;;;;;21.35;19.35;;;;;;;23.54;100.00;100634.56;1808686;78;21233;-89
2022/08/12 01:18:54;;;;;;;22.32;19.98;;;;;;;23.49;100.00;100635.16;1809018;78;21009;-90
2022/08/12 01:21:47;;;;;;;20.70;18.90;;;;;;;23.46;100.00;100639.54;1808635;78;21029;-90
2022/08/12 01:24:50;;;;;;;21.15;18.90;;;;;;;23.43;100.00;100642.61;1809205;79;21114;-89
2022/08/12 01:27:19;;;;;;;20.17;18.07;;;;;;;23.40;100.00;100637.69;1804127;79;21551;-89
2022/08/12 01:29:53;;;;;;;21.35;19.35;;;;;;;23.37;100.00;100649.55;1809059;79;20951;-89
2022/08/12 01:32:27;;;;;;;21.68;19.57;;;;;;;23.34;100.00;100644.61;1808873;79;21022;-89
2022/08/12 01:35:08;;;;;;;21.90;18.50;;;;;;;23.34;100.00;100647.80;1808308;78;20951;-90
2022/08/12 01:37:59;;;;;;;25.45;19.42;;;;;;;23.32;100.00;100651.95;1805437;79;21496;-89
2022/08/12 01:40:33;;;;;;;19.95;18.07;;;;;;;23.30;100.00;100648.18;1823888;78;21018;-89
2022/08/12 01:43:06;;;;;;;20.55;18.62;;;;;;;23.29;100.00;100646.54;1823793;78;21053;-90
2022/08/12 01:45:38;;;;;;;20.48;18.67;;;;;;;23.28;100.00;100646.22;1820110;78;20994;-89
2022/08/12 01:48:34;;;;;;;21.37;18.00;;;;;;;23.25;100.00;100637.83;1819507;78;20939;-89
2022/08/12 01:51:15;;;;;;;21.75;18.42;;;;;;;23.22;100.00;100634.27;1821684;78;21817;-89
2022/08/12 01:54:00;;;;;;;20.72;18.45;;;;;;;23.20;100.00;100634.97;1804655;78;21050;-89
2022/08/12 01:56:33;;;;;;;19.67;17.82;;;;;;;23.15;100.00;100635.53;1804710;78;21030;-89
2022/08/12 02:01:53;;;;;;;20.40;18.45;;;;;;;23.07;100.00;100638.35;1791663;80;20999;-89
2022/08/12 02:11:29;;;;;;;20.20;18.40;;;;;;;23.04;100.00;100645.38;1787993;80;20996;-89
2022/08/12 02:14:46;;;;;;;20.48;18.57;;;;;;;23.04;100.00;100652.01;1787787;80;21568;-89
2022/08/12 02:17:42;;;;;;;19.17;17.45;;;;;;;23.04;100.00;100650.69;1787989;80;20996;-89
2022/08/12 02:20:41;;;;;;;20.95;18.95;;;;;;;23.03;100.00;100651.73;1788376;80;21828;-89
2022/08/12 02:23:10;;;;;;;23.73;18.77;;;;;;;22.98;100.00;100642.50;1788004;80;21039;-89
2022/08/12 02:25:46;;;;;;;19.67;17.67;;;;;;;22.93;100.00;100643.61;1787906;80;21059;-89
2022/08/12 02:28:16;;;;;;;20.00;17.87;;;;;;;22.88;100.00;100644.69;1757525;80;21007;-89
2022/08/12 02:30:44;;;;;;;22.93;18.57;;;;;;;22.84;100.00;100643.45;1788167;80;20991;-89
2022/08/12 02:33:11;;;;;;;23.30;18.67;;;;;;;22.81;100.00;100634.55;1787933;80;21785;-89
2022/08/12 02:35:42;;;;;;;21.07;19.10;;;;;;;22.79;100.00;100637.92;1787795;80;20988;-89
2022/08/12 02:38:11;;;;;;;20.80;18.80;;;;;;;22.76;100.00;100634.32;1800423;78;21553;-89
2022/08/12 02:40:43;;;;;;;21.95;19.85;;;;;;;22.72;100.00;100646.33;1770793;81;21083;-89
2022/08/12 02:43:43;;;;;;;22.67;20.32;;;;;;;22.68;100.00;100648.55;1771322;81;21051;-89
2022/08/12 02:46:15;;;;;;;24.30;20.27;;;;;;;22.62;100.00;100652.83;1770793;79;21226;-89
2022/08/12 02:48:53;;;;;;;21.68;19.48;;;;;;;22.57;100.00;100664.51;1769196;80;20985;-89
2022/08/12 02:51:23;;;;;;;21.27;18.98;;;;;;;22.55;100.00;100663.06;1769299;81;21008;-89
2022/08/12 02:53:57;;;;;;;22.40;20.05;;;;;;;22.54;100.00;100675.53;1769178;81;21036;-89
2022/08/12 02:56:26;;;;;;;24.10;20.50;;;;;;;22.52;100.00;100677.02;1768950;81;21032;-90
2022/08/12 02:58:54;;;;;;;21.95;19.85;;;;;;;22.54;100.00;100679.51;1768966;79;21138;-89
2022/08/12 03:01:27;;;;;;;21.42;19.23;;;;;;;22.57;100.00;100675.64;1785088;79;21034;-89
2022/08/12 03:03:59;;;;;;;22.00;19.87;;;;;;;22.60;100.00;100675.23;1796618;79;21536;-89
2022/08/12 03:06:42;;;;;;;21.48;19.42;;;;;;;22.63;100.00;100670.87;1791898;78;21033;-89
2022/08/12 03:09:15;;;;;;;23.95;19.77;;;;;;;22.65;100.00;100674.98;1756894;81;21054;-89
2022/08/12 03:11:53;;;;;;;22.15;19.95;;;;;;;22.68;100.00;100675.09;1759761;81;21150;-89
2022/08/12 03:14:24;;;;;;;22.98;19.35;;;;;;;22.71;100.00;100673.38;1756014;81;21023;-89
2022/08/12 03:16:56;;;;;;;;;;;;;;;22.73;100.00;100674.02;1762293;81;21038;-89
2022/08/12 03:19:26;;;;;;;21.68;19.48;;;;;;;22.75;100.00;100677.80;1763150;80;20530;-90
2022/08/12 03:22:11;;;;;;;23.07;20.27;;;;;;;22.77;100.00;100682.41;1759749;81;21050;-90
2022/08/12 03:24:30;;;;;;;21.42;19.25;;;;;;;22.79;100.00;100694.98;1756197;81;21244;-90
2022/08/12 03:27:01;;;;;;;21.20;19.10;;;;;;;22.81;100.00;100688.47;1760054;81;21027;-89
2022/08/12 03:29:38;;;;;;;20.35;18.42;;;;;;;22.85;100.00;100696.34;1759795;81;21505;-89
2022/08/12 03:32:08;;;;;;;24.55;19.12;;;;;;;22.89;100.00;100694.63;1759516;81;20995;-89
2022/08/12 03:34:36;;;;;;;22.93;19.17;;;;;;;22.95;100.00;100692.52;1799683;79;20975;-89
2022/08/12 03:37:06;;;;;;;22.00;18.98;;;;;;;22.97;100.00;100692.62;1799777;79;21059;-89
2022/08/12 03:42:29;;;;;;;21.40;17.80;;;;;;;23.12;100.00;100691.68;1820147;78;21006;-89
2022/08/12 04:02:15;;;;;;;22.50;17.62;;;;;;;23.55;100.00;100694.15;1823129;78;21065;-88
2022/08/12 04:04:45;;;;;;;23.02;18.73;;;;;;;23.56;100.00;100687.82;1823133;78;48640;-89
2022/08/12 04:07:15;;;;;;;21.02;18.07;;;;;;;23.57;100.00;100683.31;1823203;78;21047;-89
2022/08/12 04:09:46;;;;;;;22.58;18.20;;;;;;;23.57;100.00;100685.47;1819006;78;21479;-89
2022/08/12 04:15:04;;;;;;;27.82;24.12;;;;;;;23.58;100.00;100687.61;1823144;78;21630;-89
2022/08/12 04:17:36;;;;;;;33.18;27.05;;;;;;;23.56;100.00;100689.15;1823028;78;21160;-89
2022/08/12 04:20:10;;;;;;;32.33;23.55;;;;;;;23.54;100.00;100689.84;1823039;78;21411;-89
2022/08/12 04:22:37;;;;;;;30.85;20.30;;;;;;;23.52;100.00;100682.58;1818871;78;21084;-89
2022/08/12 04:25:05;;;;;;;22.95;18.55;;;;;;;23.52;100.00;100683.09;1823571;78;21028;-89
2022/08/12 04:27:36;;;;;;;22.93;18.48;;;;;;;23.51;100.00;100683.63;1823233;78;21518;-89
2022/08/12 04:30:11;;;;;;;22.70;18.13;;;;;;;23.50;100.00;100691.77;1823702;78;21179;-91
2022/08/12 04:32:40;;;;;;;22.32;18.60;;;;;;;23.50;100.00;100693.94;1823349;78;21136;-89
2022/08/12 04:35:09;;;;;;;26.93;19.12;;;;;;;23.51;100.00;100692.09;1823387;78;21097;-89
2022/08/12 04:37:37;;;;;;;28.02;18.37;;;;;;;23.52;100.00;100699.85;1793968;78;21045;-89
2022/08/12 04:40:10;;;;;;;24.72;18.57;;;;;;;23.53;100.00;100705.48;1819702;78;21105;-88
2022/08/12 04:42:40;;;;;;;23.20;17.40;;;;;;;23.55;100.00;100703.45;1813287;79;21823;-88
2022/08/12 04:45:08;;;;;;;23.22;16.57;;;;;;;23.55;100.00;100712.75;1817238;78;21026;-87
2022/08/12 04:47:39;;;;;;;24.07;20.30;;;;;;;23.57;100.00;100719.19;1817511;78;20986;-88
2022/08/12 04:50:08;;;;;;;24.83;20.10;;;;;;;23.57;100.00;100725.34;1817463;78;20963;-88
2022/08/12 04:52:36;;;;;;;19.95;16.73;;;;;;;23.60;100.00;100728.91;1817821;78;20951;-87
2022/08/12 04:55:04;;;;;;;24.50;17.02;;;;;;;23.61;100.00;100731.87;1817595;78;21265;-87
2022/08/12 04:57:33;;;;;;;27.85;17.42;;;;;;;23.64;100.00;100733.31;1812841;78;20994;-88
2022/08/12 05:00:06;;;;;;;20.68;15.95;;;;;;;23.65;100.00;100744.26;1802578;79;21021;-87
2022/08/12 05:02:35;;;;;;;20.68;16.55;;;;;;;23.67;100.00;100736.11;1805793;79;20999;-87
2022/08/12 05:05:05;;;;;;;26.27;16.65;;;;;;;23.67;100.00;100746.74;1810482;78;20997;-85
2022/08/12 05:07:32;;;;;;;21.37;16.67;;;;;;;23.66;100.00;100755.73;1802292;79;21131;-87
2022/08/12 05:10:03;;;;;;;23.15;17.67;;;;;;;23.65;100.00;100764.20;1797272;79;21486;-88
2022/08/12 05:12:37;;;;;;;43.75;17.55;;;;;;;23.65;100.00;100762.86;1777718;79;20953;-88
2022/08/12 05:15:06;;;;;;;24.12;16.45;;;;;;;23.65;100.00;100762.86;1775224;80;21996;-88
2022/08/12 05:17:34;;;;;;;18.25;14.78;;;;;;;23.65;100.00;100751.42;1784534;80;21135;-88
2022/08/12 05:20:01;;;;;;;18.10;13.85;;;;;;;23.64;100.00;100750.59;1802118;79;21799;-87
2022/08/12 05:22:30;;;;;;;15.53;12.40;;;;;;;23.66;100.00;100751.22;1807608;79;20979;-88
2022/08/12 05:24:59;;;;;;;16.45;11.63;;;;;;;23.70;100.00;100751.64;1790608;79;21264;-88
2022/08/12 05:27:30;;;;;;;17.45;11.57;;;;;;;23.74;100.00;100757.69;1794219;79;21022;-87
2022/08/12 05:29:59;;;;;;;15.60;11.22;;;;;;;23.82;100.00;100759.86;1809396;79;21041;-86
2022/08/12 05:32:27;;;;;;;14.00;10.93;;;;;;;23.85;100.00;100762.94;1811279;79;21229;-87
2022/08/12 05:34:54;;;;;;;12.07;9.90;;;;;;;23.87;100.00;100767.55;1811431;79;20986;-87
2022/08/12 05:37:24;;;;;;;12.90;9.65;;;;;;;23.89;100.00;100776.65;1811547;79;21029;-86
2022/08/12 05:39:53;;;;;;;15.07;9.97;;;;;;;23.89;100.00;100772.17;1811662;79;20959;-86
2022/08/12 05:42:23;;;;;;;18.00;10.25;;;;;;;23.91;100.00;100770.62;1809177;79;21030;-86
2022/08/12 05:44:50;;;;;;;15.13;10.03;;;;;;;23.93;100.00;100769.44;1795808;79;21497;-86
2022/08/12 05:47:17;;;;;;;22.82;10.55;;;;;;;23.97;100.00;100779.16;1779433;79;21060;-87
2022/08/12 05:49:45;;;;;;;13.80;10.78;;;;;;;23.99;100.00;100785.11;1784872;79;21038;-88
2022/08/12 05:52:12;;;;;;;18.55;11.33;;;;;;;24.03;100.00;100782.86;1795431;80;21081;-88
2022/08/12 05:54:43;;;;;;;19.07;12.33;;;;;;;24.04;100.00;100787.16;1795855;79;21078;-89
2022/08/12 05:57:10;;;;;;;18.12;12.30;;;;;;;24.03;100.00;100777.05;1808319;78;21151;-87
2022/08/12 05:59:40;;;;;;;23.05;13.72;;;;;;;24.01;100.00;100776.92;1789649;79;21041;-87
2022/08/12 06:02:11;;;;;;;22.85;13.98;;;;;;;24.00;100.00;100776.60;1791709;79;21037;-87
2022/08/12 06:04:40;;;;;;;27.48;15.63;;;;;;;23.98;100.00;100774.16;1782475;80;21089;-87
2022/08/12 06:07:11;;;;;;;19.50;13.10;;;;;;;23.93;100.00;100773.42;1761125;79;21017;-87
2022/08/12 06:09:40;;;;;;;22.65;13.38;;;;;;;23.90;100.00;100764.50;1806985;79;22034;-86
2022/08/12 06:12:08;;;;;;;26.80;15.48;;;;;;;23.84;100.00;100765.80;1811094;79;21128;-86
2022/08/12 06:14:37;;;;;;;26.15;16.77;;;;;;;23.71;100.00;100769.23;1798318;79;21853;-86
2022/08/12 06:17:07;;;;;;;29.27;17.67;;;;;;;23.57;100.00;100771.84;1803954;79;21087;-86
2022/08/12 06:19:37;;;;;;;23.50;18.12;;;;;;;23.48;100.00;100779.14;1788191;80;21112;-87
2022/08/12 06:22:07;;;;;;;23.83;19.05;;;;;;;23.40;100.00;100766.55;1788254;80;21108;-86
2022/08/12 06:24:35;;;;;;;26.23;19.62;;;;;;;23.31;100.00;100766.70;1787930;80;21065;-87
2022/08/12 06:27:02;;;;;;;26.17;19.37;;;;;;;23.26;100.00;100774.45;1788111;80;21512;-88
2022/08/12 06:29:30;;;;;;;28.07;19.05;;;;;;;23.25;100.00;100771.48;1784039;80;21078;-89
2022/08/12 06:31:57;;;;;;;21.00;18.10;;;;;;;23.28;100.00;100768.94;1779026;80;21050;-87
2022/08/12 06:34:30;;;;;;;34.83;18.87;;;;;;;23.33;100.00;100756.39;1779333;79;21124;-87
2022/08/12 06:36:56;;;;;;;24.50;18.57;;;;;;;23.37;100.00;100761.61;1788841;79;21021;-87
2022/08/12 06:39:26;;;;;;;26.00;18.98;;;;;;;23.43;100.00;100753.69;1788821;79;21281;-88
2022/08/12 06:44:41;;;;;;;25.12;18.77;;;;;;;23.55;100.00;100746.49;1774060;80;21880;-87
2022/08/12 06:47:08;;;;;;;26.30;19.57;;;;;;;23.58;100.00;100736.28;1777661;80;21106;-88
2022/08/12 06:49:35;;;;;;;23.57;19.02;;;;;;;23.61;100.00;100735.06;1777588;80;21033;-88
2022/08/12 06:52:04;;;;;;;24.85;21.02;;;;;;;23.63;100.00;100745.80;1768252;80;21021;-88
2022/08/12 06:54:34;;;;;;;27.80;21.25;;;;;;;23.67;100.00;100745.41;1774787;80;21081;-88
2022/08/12 06:57:01;;;;;;;30.77;20.90;;;;;;;23.68;100.00;100738.56;1765272;80;21022;-87
2022/08/12 06:59:29;;;;;;;25.55;19.73;;;;;;;23.70;100.00;100733.03;1738432;81;21230;-88
2022/08/12 07:01:56;;;;;;;27.70;20.00;;;;;;;23.72;100.00;100734.98;1766536;80;21596;-88
2022/08/12 07:04:28;;;;;;;22.37;20.02;;;;;;;23.76;100.00;100732.23;1767687;79;21514;-87
2022/08/12 07:06:55;;;;;;;25.15;19.42;;;;;;;23.79;100.00;100735.34;1769582;80;21011;-88
2022/08/12 07:09:24;;;;;;;23.62;19.77;;;;;;;23.85;100.00;100739.00;1765698;79;21077;-87
2022/08/12 07:11:53;;;;;;;25.75;19.57;;;;;;;23.90;100.00;100737.92;1773191;80;21780;-87
2022/08/12 07:14:24;;;;;;;24.07;19.90;;;;;;;23.94;100.00;100737.84;1778778;79;21026;-88
2022/08/12 07:16:55;;;;;;;20.88;18.70;;;;;;;23.98;100.00;100743.58;1777806;80;21093;-87
2022/08/12 07:19:24;;;;;;;24.63;19.00;;;;;;;24.03;100.00;100737.66;1778614;80;21031;-87
2022/08/12 07:21:52;;;;;;;23.50;19.77;;;;;;;24.07;100.00;100738.91;1767067;80;21084;-87
2022/08/12 07:24:19;;;;;;;28.07;20.27;;;;;;;24.12;100.00;100739.11;1777278;80;21203;-87
2022/08/12 07:26:47;;;;;;;22.20;19.35;;;;;;;24.16;100.00;100741.66;1777072;80;21563;-87
2022/08/12 07:29:19;;;;;;;21.50;19.27;;;;;;;24.21;100.00;100739.23;1773232;80;21030;-87
2022/08/12 07:31:47;;;;;;;24.77;19.85;;;;;;;24.26;100.00;100739.95;1764588;80;21631;-88
2022/08/12 07:34:16;;;;;;;21.60;18.60;;;;;;;24.32;100.00;100763.08;1771601;80;20994;-87
2022/08/12 07:36:46;;;;;;;27.10;19.87;;;;;;;24.39;100.00;100759.91;1760738;80;21802;-88
2022/08/12 07:39:13;;;;;;;24.02;19.23;;;;;;;24.42;100.00;100757.34;1775565;80;21092;-88
2022/08/12 07:41:42;;;;;;;22.65;19.25;;;;;;;24.44;100.00;100760.62;1785987;80;22187;-88
2022/08/12 07:44:12;;;;;;;25.75;19.70;;;;;;;24.43;100.00;100764.31;1793330;79;20997;-87
2022/08/12 07:46:42;;;;;;;27.48;20.57;;;;;;;24.44;100.00;100770.47;1793070;80;21144;-90
2022/08/12 07:49:14;;;;;;;22.05;18.90;;;;;;;24.43;100.00;100760.84;1793135;80;21064;-89
2022/08/12 07:51:44;;;;;;;25.80;19.15;;;;;;;24.40;100.00;100766.03;1784561;80;21010;-90
2022/08/12 07:54:12;;;;;;;23.62;19.40;;;;;;;24.39;100.00;100769.22;1799616;79;21061;-90
2022/08/12 07:56:41;;;;;;;27.05;19.37;;;;;;;24.39;100.00;100773.21;1789255;80;21006;-89
2022/08/12 07:59:09;;;;;;;21.65;19.35;;;;;;;24.37;100.00;100773.92;1792022;79;21569;-91
2022/08/12 08:01:41;;;;;;;24.47;19.15;;;;;;;24.38;100.00;100766.77;1788023;80;21128;-90
2022/08/12 08:06:57;;;;;;;22.70;20.50;;;;;;;24.45;100.00;100760.10;1800999;78;20974;-90
2022/08/12 08:09:24;;;;;;;23.70;20.97;;;;;;;24.52;100.00;100760.43;1800323;79;21076;-91
2022/08/12 08:14:39;;;;;;;26.85;21.85;;;;;;;24.76;100.00;100764.05;1789762;80;21173;-91
2022/08/12 08:17:10;;;;;;;22.42;20.08;;;;;;;24.86;100.00;100765.27;1790088;79;21307;-90
2022/08/12 08:19:38;;;;;;;23.65;21.37;;;;;;;24.97;100.00;100773.63;1794928;79;20985;-90
2022/08/12 08:22:09;;;;;;;23.57;21.10;;;;;;;25.07;100.00;100771.37;1800821;79;20985;-90
2022/08/12 08:24:38;;;;;;;23.80;21.45;;;;;;;25.13;100.00;100763.87;1801334;78;22364;-89
2022/08/12 08:27:07;;;;;;;25.50;21.45;;;;;;;25.13;100.00;100770.53;1800575;78;21813;-90
2022/08/12 08:29:36;;;;;;;23.62;21.27;;;;;;;25.10;100.00;100776.29;1797466;79;22317;-90
2022/08/12 08:32:09;;;;;;;24.72;22.20;;;;;;;25.07;100.00;100775.89;1803150;78;21007;-89
2022/08/12 08:34:38;;;;;;;23.20;20.82;;;;;;;25.02;100.00;100775.98;1797982;78;21047;-90
2022/08/12 08:37:06;;;;;;;24.47;21.82;;;;;;;24.95;100.00;100771.70;1803294;78;21765;-90
2022/08/12 08:39:36;;;;;;;24.00;21.42;;;;;;;24.88;100.00;100768.52;1795498;78;21139;-90
2022/08/12 08:44:48;;;;;;;26.33;21.48;;;;;;;24.82;100.00;100777.34;1795600;79;21053;-89
2022/08/12 08:47:16;;;;;;;23.25;20.82;;;;;;;24.79;100.00;100789.75;1787622;79;21015;-89
2022/08/12 08:49:44;;;;;;;24.27;21.77;;;;;;;24.81;100.00;100774.89;1788637;80;21081;-89
2022/08/12 08:52:13;;;;;;;35.17;31.15;;;;;;;24.82;100.00;100774.67;1795302;78;21262;-89
2022/08/12 08:54:42;;;;;;;27.67;24.87;;;;;;;24.88;100.00;100775.70;1788289;79;21029;-88
2022/08/12 08:57:10;;;;;;;26.62;22.25;;;;;;;24.91;100.00;100773.13;1795500;79;21084;-89
2022/08/12 08:59:38;;;;;;;23.70;21.35;;;;;;;24.93;100.00;100773.75;1770181;80;21038;-89
2022/08/12 09:02:07;;;;;;;25.08;21.73;;;;;;;24.95;100.00;100770.38;1762376;80;21142;-89
2022/08/12 09:04:36;;;;;;;24.30;21.73;;;;;;;24.96;100.00;100774.65;1789664;80;21142;-90
2022/08/12 09:07:03;;;;;;;23.55;21.20;;;;;;;24.94;100.00;100776.72;1789675;79;20979;-89
2022/08/12 09:09:36;;;;;;;24.98;22.55;;;;;;;24.93;100.00;100771.89;1790344;80;21591;-91
2022/08/12 09:14:49;;;;;;;25.70;21.45;;;;;;;25.06;100.00;100778.23;1790848;79;22230;-90
2022/08/12 09:17:17;;;;;;;23.67;21.25;;;;;;;25.15;100.00;100779.13;1797699;79;21128;-90
2022/08/12 09:19:45;;;;;;;25.10;21.02;;;;;;;25.24;100.00;100780.25;1781670;78;21104;-91
2022/08/12 09:22:12;;;;;;;22.37;20.15;;;;;;;25.33;100.00;100778.47;1780656;79;21563;-91
2022/08/12 09:24:39;;;;;;;28.15;20.90;;;;;;;25.41;100.00;100777.96;1774530;79;21072;-90
2022/08/12 09:27:07;;;;;;;23.65;21.25;;;;;;;25.47;100.00;100771.81;1794471;79;21030;-91
2022/08/12 09:29:36;;;;;;;25.37;22.58;;;;;;;25.50;100.00;100781.54;1772423;80;21161;-90
2022/08/12 09:32:05;;;;;;;23.02;20.97;;;;;;;25.54;100.00;100780.60;1778012;79;20988;-89
2022/08/12 09:34:33;;;;;;;24.80;21.73;;;;;;;25.56;100.00;100775.05;1769672;80;21011;-89
2022/08/12 09:37:01;;;;;;;25.25;22.70;;;;;;;25.55;100.00;100779.58;1789258;78;21060;-89
2022/08/12 09:39:31;;;;;;;23.60;21.30;;;;;;;25.55;100.00;100776.91;1778530;80;21531;-90
2022/08/12 09:47:31;;;;;;;33.42;21.52;;;;;;;25.59;100.00;100779.44;1767346;79;21026;-88
2022/08/12 09:49:58;;;;;;;24.35;20.17;;;;;;;25.60;100.00;100776.28;1767184;81;21062;-88
2022/08/12 09:52:26;;;;;;;29.27;22.62;;;;;;;25.62;100.00;100775.53;1762163;80;20965;-89
2022/08/12 09:54:53;;;;;;;24.47;21.30;;;;;;;25.62;100.00;100776.86;1757792;79;21317;-90
2022/08/12 09:57:21;;;;;;;24.40;21.95;;;;;;;25.63;100.00;100779.84;1766229;81;21034;-90
2022/08/12 09:59:48;;;;;;;23.90;21.50;;;;;;;25.62;100.00;100783.53;1770651;79;21060;-88
2022/08/12 10:02:15;;;;;;;24.47;21.10;;;;;;;25.63;100.00;100787.84;1766430;79;22146;-88
2022/08/12 10:04:47;;;;;;;24.15;21.48;;;;;;;25.63;100.00;100799.83;1762028;79;21033;-88
2022/08/12 10:07:15;;;;;;;22.48;20.27;;;;;;;25.65;100.00;100796.45;1767651;80;21028;-88
2022/08/12 10:09:44;;;;;;;23.67;21.27;;;;;;;25.71;100.00;100800.13;1749223;81;21034;-88
2022/08/12 10:15:01;;;;;;;24.07;21.60;;;;;;;25.83;100.00;100801.08;1777764;80;21042;-89
2022/08/12 10:17:28;;;;;;;25.20;22.62;;;;;;;25.92;100.00;100796.34;1781072;80;21087;-89
2022/08/12 10:19:56;;;;;;;24.57;21.70;;;;;;;26.02;100.00;100795.34;1755984;80;21835;-88
2022/08/12 10:22:23;;;;;;;25.75;23.22;;;;;;;26.11;100.00;100787.95;1779563;79;21044;-88
2022/08/12 10:30:09;;;;;;;24.05;21.75;;;;;;;26.30;100.00;100804.86;1759412;80;21672;-88
2022/08/12 10:32:38;;;;;;;25.20;22.27;;;;;;;26.35;100.00;100801.02;1748334;81;21765;-89
2022/08/12 10:35:06;;;;;;;28.30;22.07;;;;;;;26.38;100.00;100799.77;1772337;80;20994;-88
2022/08/12 10:37:34;;;;;;;28.80;23.57;;;;;;;26.39;100.00;100803.58;1778416;80;21043;-87
2022/08/12 10:40:03;;;;;;;30.97;25.02;;;;;;;26.40;100.00;100803.05;1755284;80;21042;-89
2022/08/12 10:45:24;;;;;;;26.25;22.32;;;;;;;26.36;100.00;100797.32;1772652;80;21233;-89
2022/08/12 10:47:51;;;;;;;29.00;23.05;;;;;;;26.32;100.00;100797.44;1776551;80;21122;-87
2022/08/12 10:50:21;;;;;;;26.50;22.02;;;;;;;26.27;100.00;100799.45;1750210;80;21052;-88
2022/08/12 10:52:49;;;;;;;25.77;22.27;;;;;;;26.21;100.00;100794.95;1770467;80;21642;-88
2022/08/12 10:55:18;;;;;;;24.65;21.82;;;;;;;26.13;100.00;100796.03;1766399;80;21089;-88
2022/08/12 10:57:46;;;;;;;26.45;21.87;;;;;;;26.08;100.00;100796.37;1763553;80;21908;-90
2022/08/12 11:00:15;;;;;;;25.10;21.93;;;;;;;26.04;100.00;100789.28;1773563;80;21481;-89
2022/08/12 11:02:55;;;;;;;33.75;23.85;;;;;;;26.02;100.00;100791.87;1745964;82;21034;-89
2022/08/12 11:05:22;;;;;;;26.42;22.58;;;;;;;25.99;100.00;100795.78;1764434;80;21497;-89
2022/08/12 11:07:50;;;;;;;31.60;22.93;;;;;;;25.92;100.00;100803.81;1776694;80;21540;-89
2022/08/12 11:10:17;;;;;;;31.70;22.98;;;;;;;25.88;100.00;100805.78;1749590;80;21781;-89
2022/08/12 11:12:46;;;;;;;29.52;22.55;;;;;;;25.80;100.00;100809.00;1755513;80;21053;-89
2022/08/12 11:15:16;;;;;;;33.75;21.93;;;;;;;25.74;100.00;100805.85;1766862;80;21056;-90
2022/08/12 11:17:43;;;;;;;28.80;21.75;;;;;;;25.69;100.00;100802.98;1774999;80;21551;-89
2022/08/12 11:20:11;;;;;;;29.05;20.82;;;;;;;25.65;100.00;100799.92;1763336;80;21082;-89
2022/08/12 11:22:40;;;;;;;25.08;21.35;;;;;;;25.63;100.00;100809.16;1774102;79;21191;-90
2022/08/12 11:25:09;;;;;;;24.10;21.57;;;;;;;25.59;100.00;100812.77;1768239;80;21056;-89
2022/08/12 11:27:37;;;;;;;23.20;20.88;;;;;;;25.54;100.00;100809.92;1777992;79;21149;-89
2022/08/12 11:30:08;;;;;;;25.60;20.37;;;;;;;25.50;100.00;100813.53;1751360;80;21628;-89
2022/08/12 11:32:38;;;;;;;23.75;21.10;;;;;;;25.45;100.00;100813.84;1767104;80;21046;-89
2022/08/12 11:35:07;;;;;;;20.68;18.50;;;;;;;25.41;100.00;100818.78;1768950;79;21241;-89
2022/08/12 11:37:37;;;;;;;24.72;18.90;;;;;;;25.36;100.00;100818.53;1758114;80;21049;-89
2022/08/12 11:40:06;;;;;;;20.70;17.32;;;;;;;25.29;100.00;100818.56;1774093;80;21031;-89
2022/08/12 11:42:34;;;;;;;21.07;16.95;;;;;;;25.23;100.00;100819.91;1769849;80;21091;-89
2022/08/12 11:45:03;;;;;;;17.65;15.85;;;;;;;25.12;100.00;100828.02;1774300;80;21526;-88
2022/08/12 11:47:32;;;;;;;19.35;15.88;;;;;;;25.00;100.00;100831.82;1774518;79;21492;-89
2022/08/12 11:50:01;;;;;;;20.62;15.60;;;;;;;24.89;100.00;100835.92;1776386;80;21077;-89
2022/08/12 11:52:32;;;;;;;20.32;15.20;;;;;;;24.77;100.00;100833.06;1771922;79;21058;-88
2022/08/12 11:54:59;;;;;;;17.70;14.53;;;;;;;24.71;100.00;100833.88;1785390;79;21090;-90
2022/08/12 11:57:27;;;;;;;18.40;15.20;;;;;;;24.66;100.00;100828.30;1771900;79;20994;-89
2022/08/12 11:59:54;;;;;;;17.60;14.28;;;;;;;24.63;100.00;100827.39;1784744;79;21186;-89
2022/08/12 12:02:22;;;;;;;19.35;14.15;;;;;;;24.61;100.00;100825.44;1786984;79;21020;-89
2022/08/12 12:04:51;;;;;;;17.30;13.28;;;;;;;24.57;100.00;100829.83;1767806;80;21507;-89
2022/08/12 12:07:19;;;;;;;17.98;13.03;;;;;;;24.56;100.00;100833.51;1793263;79;21492;-89
2022/08/12 12:09:49;;;;;;;18.75;13.00;;;;;;;24.58;100.00;100831.47;1805637;79;21021;-89
2022/08/12 12:12:16;;;;;;;18.62;12.90;;;;;;;24.65;100.00;100826.66;1803260;78;21130;-89
2022/08/12 12:14:44;;;;;;;14.18;12.47;;;;;;;24.72;100.00;100823.02;1797544;78;21031;-90
2022/08/12 12:17:11;;;;;;;14.95;12.80;;;;;;;24.82;100.00;100825.27;1784659;79;21048;-89
2022/08/12 12:19:39;;;;;;;18.15;12.90;;;;;;;24.95;100.00;100827.63;1801056;77;21095;-89
2022/08/12 12:22:06;;;;;;;16.20;12.93;;;;;;;25.10;100.00;100826.06;1760390;80;21093;-89
2022/08/12 12:24:33;;;;;;;16.93;12.75;;;;;;;25.28;100.00;100816.13;1803433;78;21130;-90
2022/08/12 12:27:02;;;;;;;17.05;12.85;;;;;;;25.45;100.00;100812.52;1794806;79;21079;-90
2022/08/12 12:29:32;;;;;;;16.23;12.40;;;;;;;25.62;100.00;100811.02;1798610;79;21563;-90
2022/08/12 12:32:01;;;;;;;16.65;11.85;;;;;;;25.79;100.00;100806.02;1800999;78;21011;-90
2022/08/12 12:34:30;;;;;;;19.05;11.10;;;;;;;25.97;100.00;100795.17;1799835;78;21076;-88
2022/08/12 12:36:58;;;;;;;16.32;11.85;;;;;;;26.09;100.00;100790.81;1800762;78;21149;-89
2022/08/12 12:39:27;;;;;;;26.45;14.65;;;;;;;26.22;100.00;100794.45;1804985;78;21065;-89
2022/08/12 12:41:56;;;;;;;17.98;13.88;;;;;;;26.30;100.00;100788.32;1771911;80;21488;-89
2022/08/12 12:44:24;;;;;;;18.05;12.37;;;;;;;26.39;100.00;100787.56;1806787;78;21102;-88
2022/08/12 12:46:51;;;;;;;16.55;13.68;;;;;;;26.49;100.00;100781.73;1767169;80;21073;-88
2022/08/12 12:49:18;;;;;;;15.18;13.18;;;;;;;26.61;100.00;100782.64;1753434;80;21849;-88
2022/08/12 12:51:46;;;;;;;14.70;11.35;;;;;;;26.74;100.00;100792.40;1757346;80;21413;-88
2022/08/12 12:54:14;;;;;;;16.05;12.33;;;;;;;26.87;100.00;100785.34;1757911;81;21018;-89
2022/08/12 12:56:48;;;;;;;15.23;12.20;;;;;;;26.99;100.00;100791.59;1799077;79;21721;-89
2022/08/12 12:59:12;;;;;;;31.40;13.03;;;;;;;27.11;100.00;100790.88;1800952;78;21041;-89
2022/08/12 13:01:41;;;;;;;21.02;11.90;;;;;;;27.29;100.00;100794.88;1792711;78;21116;-88
2022/08/12 13:04:10;;;;;;;14.03;11.10;;;;;;;27.51;100.00;100792.60;1793227;79;21050;-88
2022/08/12 13:06:40;;;;;;;12.85;11.25;;;;;;;27.70;100.00;100792.05;1805820;79;21532;-87
2022/08/12 13:09:11;;;;;;;16.10;11.40;;;;;;;27.90;100.00;100783.47;1809545;79;21039;-88
2022/08/12 13:11:39;;;;;;;13.55;10.88;;;;;;;28.09;100.00;100795.80;1801314;79;21054;-89